createdAt,value
2016-07-16T00:00:32.213Z,99.99
2016-07-16T00:01:32.212Z,99.99
2016-07-16T00:02:32.309Z,99.99
2016-07-16T00:03:32.234Z,99.99
2016-07-16T00:04:32.213Z,99.99
2016-07-16T00:05:32.220Z,99.99
2016-07-16T00:06:32.224Z,99.99
2016-07-16T00:07:32.281Z,99.99
2016-07-16T00:08:32.314Z,99.99
2016-07-16T00:09:32.229Z,99.99
2016-07-16T00:10:32.233Z,99.99
2016-07-16T00:11:32.312Z,99.99
2016-07-16T00:12:32.241Z,99.99
2016-07-16T00:13:32.310Z,99.99
2016-07-16T00:14:32.317Z,99.99
2016-07-16T00:15:32.259Z,99.99
2016-07-16T00:16:32.324Z,99.99
2016-07-16T00:17:32.330Z,99.99
2016-07-16T00:18:32.335Z,99.99
2016-07-16T00:19:32.257Z,99.99
2016-07-16T00:20:32.273Z,99.99
2016-07-16T00:21:32.270Z,99.99
2016-07-16T00:22:32.360Z,99.99
2016-07-16T00:23:32.264Z,99.99
2016-07-16T00:24:32.341Z,99.57
2016-07-16T00:25:32.281Z,99.57
2016-07-16T00:26:32.282Z,99.19
2016-07-16T00:27:32.280Z,99.24
2016-07-16T00:28:32.359Z,99.28
2016-07-16T00:29:32.297Z,99.38
2016-07-16T00:30:32.287Z,99.57
2016-07-16T00:31:32.363Z,99.99
2016-07-16T00:32:32.370Z,99.99
2016-07-16T00:33:32.378Z,99.99
2016-07-16T00:34:32.323Z,99.99
2016-07-16T00:35:32.377Z,99.99
2016-07-16T00:36:32.331Z,99.99
2016-07-16T00:37:32.389Z,99.99
2016-07-16T00:38:32.315Z,99.99
2016-07-16T00:39:32.403Z,99.99
2016-07-16T00:40:32.313Z,99.99
2016-07-16T00:41:32.383Z,99.99
2016-07-16T00:42:32.418Z,99.99
2016-07-16T00:43:32.403Z,99.99
2016-07-16T00:44:32.330Z,99.99
2016-07-16T00:45:32.392Z,99.99
2016-07-16T00:46:32.398Z,99.99
2016-07-16T00:47:32.338Z,99.99
2016-07-16T00:48:32.409Z,99.99
2016-07-16T00:49:32.412Z,99.99
2016-07-16T00:50:32.348Z,99.95
2016-07-16T00:51:32.424Z,99.99
2016-07-16T00:52:32.422Z,99.99
2016-07-16T00:53:32.361Z,99.99
2016-07-16T00:54:32.363Z,99.95
2016-07-16T00:55:32.366Z,99.38
2016-07-16T00:56:32.362Z,99.57
2016-07-16T00:57:32.433Z,99.19
2016-07-16T00:58:32.456Z,99.57
2016-07-16T00:59:32.438Z,99.57
2016-07-16T01:00:32.392Z,99.48
2016-07-16T01:01:32.443Z,99.09
2016-07-16T01:02:32.460Z,99.57
2016-07-16T01:03:32.381Z,99.19
2016-07-16T01:04:32.386Z,99.48
2016-07-16T01:05:32.521Z,99.28
2016-07-16T01:06:32.469Z,98.9
2016-07-16T01:07:32.471Z,99.48
2016-07-16T01:08:32.393Z,99.19
2016-07-16T01:09:32.473Z,99.38
2016-07-16T01:10:32.397Z,98.8
2016-07-16T01:11:32.401Z,99.19
2016-07-16T01:12:32.410Z,99.28
2016-07-16T01:13:32.426Z,98.9
2016-07-16T01:14:32.499Z,99.57
2016-07-16T01:15:32.500Z,99.57
2016-07-16T01:16:32.498Z,99.28
2016-07-16T01:17:32.451Z,98.9
2016-07-16T01:18:32.499Z,99.19
2016-07-16T01:19:32.510Z,99.28
2016-07-16T01:20:32.513Z,99.19
2016-07-16T01:21:32.502Z,99.28
2016-07-16T01:22:32.443Z,99.76
2016-07-16T01:23:32.441Z,99.38
2016-07-16T01:24:32.505Z,99.57
2016-07-16T01:25:32.449Z,99.66
2016-07-16T01:26:32.449Z,99.76
2016-07-16T01:27:32.454Z,99.28
2016-07-16T01:28:32.512Z,99.95
2016-07-16T01:29:32.518Z,99.99
2016-07-16T01:30:32.453Z,99.95
2016-07-16T01:31:32.456Z,99.99
2016-07-16T01:32:32.533Z,99.85
2016-07-16T01:33:32.471Z,99.57
2016-07-16T01:34:32.468Z,99.76
2016-07-16T01:35:32.542Z,99.85
2016-07-16T01:36:32.469Z,99.99
2016-07-16T01:37:32.540Z,99.99
2016-07-16T01:38:32.550Z,99.99
2016-07-16T01:39:32.478Z,99.99
2016-07-16T01:40:32.550Z,99.99
2016-07-16T01:41:32.555Z,99.99
2016-07-16T01:42:32.487Z,99.99
2016-07-16T01:43:32.567Z,99.99
2016-07-16T01:44:32.492Z,99.99
2016-07-16T01:45:32.490Z,99.99
2016-07-16T01:46:32.572Z,99.99
2016-07-16T01:47:32.571Z,99.99
2016-07-16T01:48:32.573Z,99.99
2016-07-16T01:49:32.584Z,99.99
2016-07-16T01:50:32.582Z,99.99
2016-07-16T01:51:32.591Z,99.99
2016-07-16T01:52:32.516Z,99.99
2016-07-16T01:53:32.592Z,99.99
2016-07-16T01:54:32.598Z,99.99
2016-07-16T01:55:32.532Z,99.99
2016-07-16T01:56:32.530Z,99.99
2016-07-16T01:57:32.538Z,99.99
2016-07-16T01:58:32.535Z,99.99
2016-07-16T01:59:32.578Z,99.99
2016-07-16T02:00:32.544Z,99.99
2016-07-16T02:01:32.555Z,99.99
2016-07-16T02:02:32.610Z,99.99
2016-07-16T02:03:32.622Z,99.99
2016-07-16T02:04:32.613Z,99.99
2016-07-16T02:05:32.549Z,99.99
2016-07-16T02:06:32.558Z,99.99
2016-07-16T02:07:32.557Z,99.99
2016-07-16T02:08:32.633Z,99.99
2016-07-16T02:09:32.569Z,99.99
2016-07-16T02:10:32.646Z,99.99
2016-07-16T02:11:32.644Z,99.99
2016-07-16T02:12:32.572Z,99.99
2016-07-16T02:13:32.645Z,99.99
2016-07-16T02:14:32.588Z,99.99
2016-07-16T02:15:32.579Z,99.99
2016-07-16T02:16:32.586Z,99.99
2016-07-16T02:17:32.587Z,99.99
2016-07-16T02:18:32.584Z,99.99
2016-07-16T02:19:32.585Z,99.99
2016-07-16T02:20:32.596Z,99.99
2016-07-16T02:21:32.686Z,99.99
2016-07-16T02:22:32.605Z,99.99
2016-07-16T02:23:32.672Z,99.99
2016-07-16T02:24:32.603Z,99.99
2016-07-16T02:25:32.679Z,99.99
2016-07-16T02:26:32.613Z,99.99
2016-07-16T02:27:32.694Z,99.99
2016-07-16T02:28:32.705Z,99.99
2016-07-16T02:29:32.691Z,99.99
2016-07-16T02:30:32.690Z,99.99
2016-07-16T02:31:32.697Z,99.99
2016-07-16T02:32:32.625Z,99.99
2016-07-16T02:33:32.630Z,99.99
2016-07-16T02:34:32.709Z,99.99
2016-07-16T02:35:32.705Z,99.99
2016-07-16T02:36:32.644Z,99.99
2016-07-16T02:37:32.641Z,99.99
2016-07-16T02:38:32.710Z,99.99
2016-07-16T02:39:32.655Z,99.99
2016-07-16T02:40:32.674Z,99.99
2016-07-16T02:41:32.724Z,99.99
2016-07-16T02:42:32.658Z,99.99
2016-07-16T02:43:32.651Z,99.99
2016-07-16T02:44:32.725Z,99.99
2016-07-16T02:45:32.739Z,99.99
2016-07-16T02:46:32.666Z,99.99
2016-07-16T02:47:32.674Z,99.99
2016-07-16T02:48:32.733Z,99.99
2016-07-16T02:49:32.749Z,99.99
2016-07-16T02:50:32.787Z,99.99
2016-07-16T02:51:32.677Z,99.99
2016-07-16T02:52:32.754Z,99.99
2016-07-16T02:53:32.685Z,99.99
2016-07-16T02:54:32.766Z,99.99
2016-07-16T02:55:32.700Z,99.99
2016-07-16T02:56:32.692Z,99.99
2016-07-16T02:57:32.784Z,99.99
2016-07-16T02:58:32.705Z,99.99
2016-07-16T02:59:32.770Z,99.99
2016-07-16T03:00:32.770Z,99.99
2016-07-16T03:01:32.786Z,99.99
2016-07-16T03:02:32.787Z,99.99
2016-07-16T03:03:32.712Z,99.99
2016-07-16T03:04:32.716Z,99.99
2016-07-16T03:05:32.716Z,99.99
2016-07-16T03:06:32.727Z,99.99
2016-07-16T03:07:32.792Z,99.99
2016-07-16T03:08:32.757Z,99.99
2016-07-16T03:09:32.800Z,99.99
2016-07-16T03:10:32.734Z,99.99
2016-07-16T03:11:32.820Z,99.99
2016-07-16T03:12:32.742Z,99.99
2016-07-16T03:13:32.809Z,99.99
2016-07-16T03:14:32.813Z,99.99
2016-07-16T03:15:32.748Z,99.99
2016-07-16T03:16:32.756Z,99.99
2016-07-16T03:17:32.829Z,99.99
2016-07-16T03:18:32.760Z,99.99
2016-07-16T03:19:32.764Z,99.99
2016-07-16T03:20:32.873Z,99.99
2016-07-16T03:21:33.469Z,99.99
2016-07-16T03:22:32.848Z,99.99
2016-07-16T03:23:32.839Z,99.99
2016-07-16T03:24:32.837Z,99.99
2016-07-16T03:25:32.775Z,99.99
2016-07-16T03:26:32.838Z,99.99
2016-07-16T03:27:32.845Z,99.99
2016-07-16T03:28:32.855Z,99.99
2016-07-16T03:29:32.781Z,99.99
2016-07-16T03:30:32.786Z,99.99
2016-07-16T03:31:32.875Z,99.99
2016-07-16T03:32:32.863Z,99.99
2016-07-16T03:33:32.872Z,99.99
2016-07-16T03:34:32.892Z,99.99
2016-07-16T03:35:32.803Z,99.99
2016-07-16T03:36:32.883Z,99.99
2016-07-16T03:37:32.891Z,99.99
2016-07-16T03:38:32.819Z,99.99
2016-07-16T03:39:32.812Z,99.99
2016-07-16T03:40:32.882Z,99.99
2016-07-16T03:41:32.846Z,99.99
2016-07-16T03:42:32.896Z,99.99
2016-07-16T03:43:32.889Z,99.99
2016-07-16T03:44:32.956Z,99.99
2016-07-16T03:45:32.905Z,99.99
2016-07-16T03:46:32.833Z,99.99
2016-07-16T03:47:32.850Z,99.99
2016-07-16T03:48:32.839Z,99.99
2016-07-16T03:49:32.848Z,99.99
2016-07-16T03:50:32.914Z,99.99
2016-07-16T03:51:32.847Z,99.99
2016-07-16T03:52:32.848Z,99.99
2016-07-16T03:53:32.926Z,99.99
2016-07-16T03:54:32.851Z,99.99
2016-07-16T03:55:32.932Z,99.99
2016-07-16T03:56:32.879Z,99.99
2016-07-16T03:57:32.933Z,99.99
2016-07-16T03:58:32.934Z,99.99
2016-07-16T03:59:32.952Z,99.99
2016-07-16T04:00:32.943Z,99.99
2016-07-16T04:01:32.958Z,99.99
2016-07-16T04:02:32.872Z,99.99
2016-07-16T04:03:32.957Z,99.99
2016-07-16T04:04:32.981Z,99.99
2016-07-16T04:05:32.956Z,99.99
2016-07-16T04:06:32.887Z,99.99
2016-07-16T04:07:32.971Z,99.99
2016-07-16T04:08:32.960Z,99.99
2016-07-16T04:09:32.903Z,99.99
2016-07-16T04:10:32.969Z,99.99
2016-07-16T04:11:32.912Z,99.99
2016-07-16T04:12:32.909Z,99.99
2016-07-16T04:13:32.932Z,99.99
2016-07-16T04:14:32.914Z,99.99
2016-07-16T04:15:32.910Z,99.99
2016-07-16T04:16:33.507Z,99.99
2016-07-16T04:17:32.924Z,99.99
2016-07-16T04:18:32.993Z,99.99
2016-07-16T04:19:32.929Z,99.99
2016-07-16T04:20:32.939Z,99.99
2016-07-16T04:21:33.014Z,99.99
2016-07-16T04:22:33.000Z,99.99
2016-07-16T04:23:33.008Z,99.99
2016-07-16T04:24:33.023Z,99.99
2016-07-16T04:25:33.018Z,99.99
2016-07-16T04:26:33.021Z,99.99
2016-07-16T04:27:33.031Z,99.99
2016-07-16T04:28:32.948Z,99.99
2016-07-16T04:29:32.949Z,99.99
2016-07-16T04:30:32.952Z,99.99
2016-07-16T04:31:32.956Z,99.99
2016-07-16T04:32:33.033Z,99.99
2016-07-16T04:33:32.966Z,99.99
2016-07-16T04:34:32.962Z,99.99
2016-07-16T04:35:33.041Z,99.99
2016-07-16T04:36:33.039Z,99.99
2016-07-16T04:37:33.047Z,99.99
2016-07-16T04:38:33.060Z,99.99
2016-07-16T04:39:32.979Z,99.99
2016-07-16T04:40:32.985Z,99.99
2016-07-16T04:41:32.982Z,99.99
2016-07-16T04:42:32.992Z,99.99
2016-07-16T04:43:33.077Z,99.99
2016-07-16T04:44:33.005Z,99.99
2016-07-16T04:45:33.068Z,99.99
2016-07-16T04:46:32.999Z,99.99
2016-07-16T04:47:33.007Z,99.99
2016-07-16T04:48:33.002Z,99.99
2016-07-16T04:49:33.095Z,99.99
2016-07-16T04:50:33.102Z,99.99
2016-07-16T04:51:33.015Z,99.99
2016-07-16T04:52:33.090Z,99.99
2016-07-16T04:53:33.097Z,99.99
2016-07-16T04:54:33.021Z,99.99
2016-07-16T04:55:33.095Z,99.99
2016-07-16T04:56:33.098Z,99.99
2016-07-16T04:57:33.029Z,99.99
2016-07-16T04:58:33.110Z,99.99
2016-07-16T04:59:33.037Z,99.99
2016-07-16T05:00:33.144Z,99.99
2016-07-16T05:01:33.042Z,99.99
2016-07-16T05:02:33.047Z,99.99
2016-07-16T05:03:33.099Z,99.99
2016-07-16T05:04:33.120Z,99.99
2016-07-16T05:05:33.128Z,99.99
2016-07-16T05:06:33.054Z,99.99
2016-07-16T05:07:33.144Z,99.99
2016-07-16T05:08:33.075Z,99.99
2016-07-16T05:09:33.142Z,99.99
2016-07-16T05:21:40.935Z,99.99
2016-07-16T05:22:40.855Z,99.99
2016-07-16T05:23:40.861Z,99.99
2016-07-16T05:24:40.937Z,99.99
2016-07-16T05:25:40.954Z,99.99
2016-07-16T05:26:40.945Z,99.99
2016-07-16T05:27:40.953Z,99.99
2016-07-16T05:28:40.945Z,99.99
2016-07-16T05:29:40.876Z,99.99
2016-07-16T05:30:40.881Z,99.91
2016-07-16T05:31:40.965Z,99.91
2016-07-16T05:32:40.895Z,99.72
2016-07-16T05:33:40.961Z,99.15
2016-07-16T05:34:40.897Z,99.52
2016-07-16T05:35:40.894Z,98.86
2016-07-16T05:36:40.893Z,99
2016-07-16T05:37:40.897Z,98.81
2016-07-16T05:38:40.983Z,98.91
2016-07-16T05:39:40.985Z,98.62
2016-07-16T05:40:40.916Z,98.66
2016-07-16T05:41:40.912Z,98.91
2016-07-16T05:42:40.923Z,98.86
2016-07-16T05:43:40.908Z,98.81
2016-07-16T05:44:40.917Z,98.81
2016-07-16T05:45:40.921Z,98.52
2016-07-16T05:46:40.925Z,98.91
2016-07-16T05:47:40.933Z,98.52
2016-07-16T05:48:41.004Z,98.71
2016-07-16T05:49:40.928Z,98.24
2016-07-16T05:50:40.936Z,99
2016-07-16T05:51:40.943Z,98.91
2016-07-16T05:52:41.014Z,98.62
2016-07-16T05:53:41.012Z,98.62
2016-07-16T05:54:41.022Z,98.14
2016-07-16T05:55:40.954Z,98.43
2016-07-16T05:56:41.015Z,98.33
2016-07-16T05:57:40.949Z,98.71
2016-07-16T05:58:40.964Z,98.24
2016-07-16T05:59:40.962Z,98.24
2016-07-16T06:00:41.248Z,98.43
2016-07-16T06:01:41.047Z,98.24
2016-07-16T06:02:40.966Z,98.14
2016-07-16T06:03:40.974Z,98.05
2016-07-16T06:04:40.982Z,98.71
2016-07-16T06:05:41.042Z,97.95
2016-07-16T06:06:40.987Z,98.33
2016-07-16T06:07:41.058Z,97.95
2016-07-16T06:08:41.056Z,97.95
2016-07-16T06:09:40.993Z,98.52
2016-07-16T06:10:41.062Z,98.43
2016-07-16T06:11:41.071Z,98.52
2016-07-16T06:12:41.147Z,98.14
2016-07-16T06:13:41.073Z,98.33
2016-07-16T06:14:41.002Z,97.85
2016-07-16T06:15:41.009Z,97.95
2016-07-16T06:16:41.009Z,98.71
2016-07-16T06:17:41.007Z,98.24
2016-07-16T06:18:41.079Z,98.14
2016-07-16T06:19:41.021Z,97.56
2016-07-16T06:20:41.022Z,97.66
2016-07-16T06:21:41.099Z,97.71
2016-07-16T06:22:41.025Z,97.52
2016-07-16T06:23:41.093Z,97.42
2016-07-16T06:24:41.029Z,97.52
2016-07-16T06:25:41.099Z,97.23
2016-07-16T06:26:41.031Z,96.84
2016-07-16T06:27:41.041Z,96.47
2016-07-16T06:28:41.037Z,96.84
2016-07-16T06:29:41.055Z,96.75
2016-07-16T06:30:41.051Z,97.04
2016-07-16T06:31:41.123Z,97.04
2016-07-16T06:32:41.076Z,97.14
2016-07-16T06:33:41.064Z,96.37
2016-07-16T06:34:41.059Z,96.27
2016-07-16T06:35:41.060Z,95.94
2016-07-16T06:36:41.132Z,95.46
2016-07-16T06:37:41.065Z,95.84
2016-07-16T06:38:41.154Z,95.46
2016-07-16T06:39:41.148Z,95.75
2016-07-16T06:40:41.141Z,95.94
2016-07-16T06:41:41.155Z,96.13
2016-07-16T06:42:41.157Z,96.22
2016-07-16T06:43:41.088Z,96.7
2016-07-16T06:44:41.169Z,96.51
2016-07-16T06:45:41.090Z,96.32
2016-07-16T06:46:41.098Z,96.61
2016-07-16T06:47:41.171Z,96.22
2016-07-16T06:48:41.163Z,96.61
2016-07-16T06:49:41.095Z,96.51
2016-07-16T06:50:41.101Z,97.18
2016-07-16T06:51:41.186Z,96.7
2016-07-16T06:52:41.181Z,96.32
2016-07-16T06:53:41.195Z,97.09
2016-07-16T06:58:06.522Z,96.84
2016-07-16T06:59:06.536Z,97.47
2016-07-16T07:00:06.674Z,97.42
2016-07-16T07:01:06.568Z,97.23
2016-07-16T07:02:06.533Z,96.99
2016-07-16T07:03:06.542Z,96.99
2016-07-16T07:04:06.543Z,97.76
2016-07-16T07:05:06.538Z,97.52
2016-07-16T07:06:06.617Z,97.38
2016-07-16T07:07:06.557Z,97.47
2016-07-16T07:08:06.617Z,97.18
2016-07-16T07:09:06.553Z,97.38
2016-07-16T07:10:06.631Z,97.56
2016-07-16T07:11:06.628Z,97.76
2016-07-16T07:12:06.582Z,97.56
2016-07-16T07:13:06.561Z,97.85
2016-07-16T07:14:06.648Z,97.38
2016-07-16T07:15:06.565Z,97.66
2016-07-16T07:16:06.594Z,97.95
2016-07-16T07:17:06.683Z,98.05
2016-07-16T07:18:06.747Z,97.95
2016-07-16T07:19:06.579Z,98.43
2016-07-16T07:20:06.676Z,98.33
2016-07-16T07:21:06.659Z,98.62
2016-07-16T07:22:06.659Z,98.33
2016-07-16T07:23:06.614Z,97.76
2016-07-16T07:24:06.601Z,98.33
2016-07-16T07:25:06.663Z,98.52
2016-07-16T07:26:06.601Z,98.81
2016-07-16T07:27:06.679Z,98.33
2016-07-16T07:28:06.607Z,98.43
2016-07-16T07:29:06.610Z,98.24
2016-07-16T07:32:14.208Z,98.62
2016-07-16T07:32:21.159Z,98.81
2016-07-16T07:33:21.141Z,98.52
2016-07-16T07:34:21.140Z,98.81
2016-07-16T07:35:21.147Z,98.91
2016-07-16T07:36:21.157Z,98.91
2016-07-16T07:37:21.227Z,99.01
2016-07-16T07:38:21.159Z,98.72
2016-07-16T07:39:21.160Z,98.91
2016-07-16T07:40:21.158Z,99.19
2016-07-16T07:41:21.255Z,99.77
2016-07-16T07:42:21.170Z,99.68
2016-07-16T07:49:50.557Z,99.68
2016-07-16T07:49:57.537Z,99.29
2016-07-16T07:50:57.526Z,99.29
2016-07-16T07:51:57.465Z,99.29
2016-07-16T07:52:57.458Z,99.68
2016-07-16T07:53:57.477Z,99.58
2016-07-16T07:54:57.531Z,99.63
2016-07-16T07:55:57.542Z,99.73
2016-07-16T07:56:57.463Z,99.68
2016-07-16T07:57:57.480Z,99.68
2016-07-16T07:58:57.546Z,99.19
2016-07-16T07:59:57.573Z,99.24
2016-07-16T08:00:57.514Z,99.44
2016-07-16T08:01:57.591Z,99.34
2016-07-16T08:02:57.479Z,99.24
2016-07-16T08:03:57.596Z,98.86
2016-07-16T08:04:57.492Z,98.86
2016-07-16T08:05:57.581Z,98.1
2016-07-16T08:06:57.592Z,98.86
2016-07-16T08:07:57.600Z,98.86
2016-07-16T08:08:57.596Z,99.05
2016-07-16T08:09:58.074Z,99.05
2016-07-16T08:10:57.527Z,98.96
2016-07-16T08:11:57.598Z,98.77
2016-07-16T08:12:57.547Z,98.86
2016-07-16T08:13:57.600Z,99.53
2016-07-16T08:14:57.597Z,99.44
2016-07-16T08:15:57.523Z,99.1
2016-07-16T08:16:57.610Z,98.91
2016-07-16T08:17:57.619Z,98.33
2016-07-16T08:18:57.622Z,98.62
2016-07-16T08:19:57.524Z,98.43
2016-07-16T08:20:57.621Z,99.1
2016-07-16T08:21:57.615Z,99.01
2016-07-16T08:22:57.573Z,98.91
2016-07-16T08:23:57.628Z,98.14
2016-07-16T08:24:57.597Z,98.14
2016-07-16T08:25:57.551Z,98.82
2016-07-16T08:26:57.562Z,98.82
2016-07-16T08:27:57.546Z,98.62
2016-07-16T08:28:57.625Z,98.62
2016-07-16T08:29:57.625Z,98.91
2016-07-16T08:30:57.561Z,98.72
2016-07-16T08:31:57.561Z,98.91
2016-07-16T08:32:57.561Z,98.72
2016-07-16T08:33:57.658Z,98.62
2016-07-16T08:34:57.675Z,99.2
2016-07-16T08:35:57.572Z,98.91
2016-07-16T08:36:57.575Z,99.29
2016-07-16T08:37:57.598Z,99.1
2016-07-16T08:38:57.590Z,98.91
2016-07-16T08:39:57.610Z,98.91
2016-07-16T08:40:57.666Z,98.96
2016-07-16T08:41:57.611Z,99.44
2016-07-16T08:42:57.597Z,99.77
2016-07-16T08:43:57.591Z,98.82
2016-07-16T08:44:57.600Z,98.72
2016-07-16T08:45:57.603Z,99.2
2016-07-16T08:46:57.606Z,99.01
2016-07-16T08:47:57.608Z,98.72
2016-07-16T08:48:57.609Z,98.82
2016-07-16T08:49:57.690Z,98.91
2016-07-16T08:50:57.703Z,98.43
2016-07-16T08:51:57.698Z,98.62
2016-07-16T08:52:57.696Z,98.72
2016-07-16T08:53:57.615Z,98.82
2016-07-16T08:54:57.717Z,99.24
2016-07-16T08:55:57.703Z,98.91
2016-07-16T08:56:57.712Z,98.53
2016-07-16T08:57:57.704Z,98.91
2016-07-16T08:58:57.720Z,98.53
2016-07-16T08:59:57.724Z,98.33
2016-07-16T09:00:57.658Z,98.38
2016-07-16T09:01:57.652Z,98.29
2016-07-16T09:02:57.647Z,98.19
2016-07-16T09:03:57.722Z,98.48
2016-07-16T09:04:57.736Z,98.29
2016-07-16T09:05:57.663Z,98.43
2016-07-16T09:06:57.744Z,97.91
2016-07-16T09:07:57.671Z,98.19
2016-07-16T09:08:57.673Z,98.48
2016-07-16T09:09:57.676Z,98.19
2016-07-16T09:10:57.673Z,98.43
2016-07-16T09:11:57.751Z,98.62
2016-07-16T09:12:57.682Z,99.05
2016-07-16T09:13:57.684Z,98.91
2016-07-16T09:14:57.689Z,98.58
2016-07-16T09:15:57.686Z,98.48
2016-07-16T09:16:57.764Z,98.48
2016-07-16T09:17:57.697Z,98.91
2016-07-16T09:18:57.705Z,98.86
2016-07-16T09:19:57.701Z,98.43
2016-07-16T09:20:57.773Z,98.58
2016-07-16T09:21:57.783Z,98.38
2016-07-16T09:22:57.773Z,97.81
2016-07-16T09:23:57.780Z,97.61
2016-07-16T09:24:57.718Z,98.48
2016-07-16T09:25:57.797Z,98.38
2016-07-16T09:26:57.790Z,98.48
2016-07-16T09:27:57.804Z,98.58
2016-07-16T09:28:57.726Z,98.48
2016-07-16T09:29:57.800Z,98
2016-07-16T09:30:57.792Z,97.38
2016-07-16T09:31:57.811Z,97.38
2016-07-16T09:32:57.739Z,97.57
2016-07-16T09:33:57.827Z,98.14
2016-07-16T09:34:57.742Z,98
2016-07-16T09:35:57.822Z,98.14
2016-07-16T09:36:57.752Z,97.71
2016-07-16T09:37:57.827Z,97.91
2016-07-16T09:38:57.755Z,98.38
2016-07-16T09:39:57.767Z,98.58
2016-07-16T09:40:57.837Z,98.67
2016-07-16T09:41:57.763Z,97.91
2016-07-16T09:42:57.835Z,97.96
2016-07-16T09:43:57.850Z,97.96
2016-07-16T09:44:57.769Z,97.86
2016-07-16T09:45:57.769Z,97.86
2016-07-16T09:46:57.779Z,97.86
2016-07-16T09:47:57.856Z,97.76
2016-07-16T09:48:57.880Z,97.86
2016-07-16T09:49:57.861Z,97.96
2016-07-16T09:50:57.865Z,98.38
2016-07-16T09:51:57.791Z,98.58
2016-07-16T09:52:57.868Z,99.25
2016-07-16T09:53:57.801Z,98.86
2016-07-16T09:54:57.798Z,98.77
2016-07-16T09:55:57.806Z,99.05
2016-07-16T09:56:57.890Z,98.48
2016-07-16T09:57:57.877Z,99.34
2016-07-16T09:58:57.902Z,98.29
2016-07-16T09:59:57.891Z,98.24
2016-07-16T10:00:57.907Z,98.14
2016-07-16T10:01:57.887Z,98.05
2016-07-16T10:02:57.829Z,98.34
2016-07-16T10:03:57.892Z,97.66
2016-07-16T10:04:57.847Z,97.71
2016-07-16T10:05:57.906Z,97.76
2016-07-16T10:06:57.830Z,97.57
2016-07-16T10:07:57.831Z,97.96
2016-07-16T10:08:57.842Z,97.38
2016-07-16T10:09:57.849Z,97.57
2016-07-16T10:10:57.917Z,97.47
2016-07-16T10:11:57.926Z,96.7
2016-07-16T10:12:57.854Z,96.66
2016-07-16T10:13:57.854Z,96.56
2016-07-16T10:14:57.931Z,96.27
2016-07-16T10:15:57.879Z,96.66
2016-07-16T10:16:57.931Z,96.75
2016-07-16T10:17:57.966Z,96.56
2016-07-16T10:18:57.944Z,96.94
2016-07-16T10:19:57.889Z,96.56
2016-07-16T10:20:57.871Z,96.47
2016-07-16T10:21:57.875Z,95.98
2016-07-16T10:22:57.877Z,95.17
2016-07-16T10:23:57.979Z,95.17
2016-07-16T10:24:57.887Z,94.4
2016-07-16T10:25:57.890Z,94.49
2016-07-16T10:32:33.954Z,96.61
2016-07-16T10:33:33.894Z,96.37
2016-07-16T10:34:33.973Z,95.45
2016-07-16T10:35:33.887Z,94.88
2016-07-16T10:36:33.960Z,95.94
2016-07-16T10:37:34.019Z,94.88
2016-07-16T10:38:33.983Z,95.07
2016-07-16T10:39:33.970Z,95.26
2016-07-16T10:40:33.909Z,95.36
2016-07-16T10:41:33.979Z,95.55
2016-07-16T10:42:33.913Z,95.94
2016-07-16T10:43:33.917Z,96.75
2016-07-16T10:44:33.996Z,96.27
2016-07-16T10:45:33.996Z,96.22
2016-07-16T10:46:34.022Z,95.94
2016-07-16T10:47:33.928Z,96.03
2016-07-16T10:48:33.938Z,95.45
2016-07-16T10:49:33.941Z,94.73
2016-07-16T10:50:34.031Z,94.35
2016-07-16T10:51:33.936Z,94.83
2016-07-16T10:52:33.945Z,96.13
2016-07-16T10:53:34.022Z,95.45
2016-07-16T10:54:34.046Z,95.94
2016-07-16T10:55:34.155Z,95.84
2016-07-16T10:56:34.034Z,96.08
2016-07-16T10:57:33.963Z,95.21
2016-07-16T10:58:34.040Z,95.31
2016-07-16T10:59:34.031Z,96.32
2016-07-16T11:00:33.979Z,96.7
2016-07-16T11:01:34.047Z,96.9
2016-07-16T11:02:34.209Z,95.94
2016-07-16T11:03:34.041Z,95.4
2016-07-16T11:04:34.052Z,94.83
2016-07-16T11:05:34.004Z,95.21
2016-07-16T11:06:34.064Z,94.92
2016-07-16T11:07:34.153Z,95.4
2016-07-16T11:08:34.059Z,95.94
2016-07-16T11:09:34.078Z,95.7
2016-07-16T11:10:34.072Z,96.27
2016-07-16T11:11:33.995Z,94.92
2016-07-16T11:12:34.082Z,94.1
2016-07-16T11:13:34.077Z,93.05
2016-07-16T11:14:34.006Z,93.05
2016-07-16T11:15:34.009Z,94.4
2016-07-16T11:16:34.019Z,94.54
2016-07-16T11:17:34.104Z,94.64
2016-07-16T11:18:34.090Z,94.4
2016-07-16T11:19:34.105Z,94.78
2016-07-16T11:20:34.023Z,93.91
2016-07-16T11:21:34.035Z,94.2
2016-07-16T11:22:34.121Z,94.3
2016-07-16T11:23:34.108Z,94.1
2016-07-16T11:24:34.110Z,94.3
2016-07-16T11:25:34.055Z,94.01
2016-07-16T11:26:34.053Z,94.59
2016-07-16T11:27:34.116Z,94.49
2016-07-16T11:28:34.044Z,94.49
2016-07-16T11:29:34.159Z,94.87
2016-07-16T11:30:34.065Z,94.64
2016-07-16T11:31:34.127Z,94.35
2016-07-16T11:32:34.069Z,94.3
2016-07-16T11:33:34.065Z,94.59
2016-07-16T11:34:34.074Z,94.73
2016-07-16T11:35:34.146Z,94.54
2016-07-16T11:36:34.153Z,94.49
2016-07-16T11:37:34.150Z,94.4
2016-07-16T11:38:34.175Z,94.78
2016-07-16T11:39:34.072Z,94.73
2016-07-16T11:40:34.153Z,95.12
2016-07-16T11:41:34.145Z,95.21
2016-07-16T11:42:34.216Z,95.12
2016-07-16T11:43:34.165Z,94.64
2016-07-16T11:44:34.161Z,94.4
2016-07-16T11:45:34.093Z,94.87
2016-07-16T11:46:34.111Z,95.07
2016-07-16T11:47:34.099Z,94.87
2016-07-16T11:48:34.179Z,94.59
2016-07-16T11:49:34.112Z,95.26
2016-07-16T11:50:34.190Z,94.59
2016-07-16T11:51:34.124Z,94.87
2016-07-16T11:52:34.201Z,95.17
2016-07-16T11:53:34.199Z,94.97
2016-07-16T11:54:34.199Z,95.17
2016-07-16T11:55:34.148Z,95.55
2016-07-16T11:56:34.235Z,96.27
2016-07-16T11:57:34.136Z,97.04
2016-07-16T11:58:34.145Z,97.76
2016-07-16T11:59:34.131Z,97.67
2016-07-16T12:00:34.238Z,97.52
2016-07-16T12:01:34.202Z,96.75
2016-07-16T12:02:34.149Z,96.66
2016-07-16T12:03:34.146Z,96.85
2016-07-16T12:04:34.218Z,97.04
2016-07-16T12:05:34.157Z,96.66
2016-07-16T12:06:34.227Z,96.27
2016-07-16T12:07:34.234Z,96.56
2016-07-16T12:08:34.237Z,97.04
2016-07-16T12:09:34.163Z,96.85
2016-07-16T12:10:34.175Z,96.27
2016-07-16T12:11:34.180Z,96.27
2016-07-16T12:12:34.177Z,96.85
2016-07-16T12:13:34.174Z,97.62
2016-07-16T12:14:34.248Z,97.33
2016-07-16T12:15:34.252Z,96.85
2016-07-16T12:16:34.247Z,96.85
2016-07-16T12:17:34.258Z,96.85
2016-07-16T12:18:34.211Z,97.42
2016-07-16T12:19:34.193Z,97.33
2016-07-16T12:20:34.233Z,97.24
2016-07-16T12:21:34.200Z,97.24
2016-07-16T12:22:34.281Z,96.89
2016-07-16T12:23:34.293Z,97.38
2016-07-16T12:24:34.286Z,96.8
2016-07-16T12:25:34.287Z,97.33
2016-07-16T12:26:34.218Z,97.42
2016-07-16T12:27:34.221Z,97.71
2016-07-16T12:28:34.293Z,97.81
2016-07-16T12:29:34.222Z,97.62
2016-07-16T12:30:34.227Z,96.89
2016-07-16T12:31:34.318Z,97.57
2016-07-16T12:32:34.232Z,97.42
2016-07-16T12:33:34.323Z,97.42
2016-07-16T12:34:34.247Z,97.14
2016-07-16T12:35:34.252Z,97.62
2016-07-16T12:36:34.316Z,97.24
2016-07-16T12:37:34.250Z,97.04
2016-07-16T12:38:34.259Z,97.52
2016-07-16T12:39:34.320Z,97.24
2016-07-16T12:40:34.264Z,96.85
2016-07-16T12:41:34.297Z,96.85
2016-07-16T12:42:34.343Z,97.52
2016-07-16T12:43:34.337Z,97.33
2016-07-16T12:44:34.268Z,97.71
2016-07-16T12:45:34.374Z,97.91
2016-07-16T12:46:34.341Z,97.14
2016-07-16T12:47:34.354Z,97.71
2016-07-16T12:48:34.291Z,97.42
2016-07-16T12:49:34.284Z,97.62
2016-07-16T12:50:34.284Z,97.33
2016-07-16T12:51:34.285Z,97.04
2016-07-16T12:52:34.302Z,97.09
2016-07-16T12:53:34.369Z,96.8
2016-07-16T12:54:34.318Z,96.7
2016-07-16T12:55:34.368Z,96.22
2016-07-16T12:56:49.339Z,96.42
2016-07-16T12:57:34.414Z,95.94
2016-07-16T12:58:34.638Z,95.45
2016-07-16T12:59:34.313Z,95.55
2016-07-16T13:00:34.328Z,95.55
2016-07-16T13:01:34.316Z,95.36
2016-07-16T13:02:34.389Z,95.17
2016-07-16T13:03:34.400Z,95.02
2016-07-16T13:04:34.334Z,94.54
2016-07-16T13:05:34.404Z,93.43
2016-07-16T13:06:34.441Z,93.62
2016-07-16T13:07:34.393Z,93.57
2016-07-16T13:08:34.369Z,93.77
2016-07-16T13:09:34.415Z,94.15
2016-07-16T13:10:34.417Z,93.96
2016-07-16T13:11:34.432Z,94.06
2016-07-16T13:12:34.425Z,93.72
2016-07-16T13:13:34.369Z,93.81
2016-07-16T13:14:34.386Z,93.62
2016-07-16T13:15:34.359Z,93.04
2016-07-16T13:16:34.371Z,93.04
2016-07-16T13:17:34.359Z,94.2
2016-07-16T13:18:34.447Z,94.92
2016-07-16T13:19:34.493Z,94.49
2016-07-16T13:20:34.444Z,94.49
2016-07-16T13:21:34.448Z,94.82